sensor_id;sensor_type;location;lat;lon;timestamp;P1;durP1;ratioP1;P2;durP2;ratioP2
22768;SDS011;13001;51.968;5.918;2024-02-28T00:00:59;149.32;;;37.70;;
22768;SDS011;13001;51.968;5.918;2024-02-28T00:03:27;185.80;;;38.55;;
22768;SDS011;13001;51.968;5.918;2024-02-28T00:05:54;168.80;;;41.95;;
22768;SDS011;13001;51.968;5.918;2024-02-28T00:08:22;188.68;;;37.58;;
22768;SDS011;13001;51.968;5.918;2024-02-28T00:10:49;192.28;;;36.65;;
22768;SDS011;13001;51.968;5.918;2024-02-28T00:13:17;240.80;;;34.38;;
22768;SDS011;13001;51.968;5.918;2024-02-28T00:15:46;297.12;;;29.25;;
22768;SDS011;13001;51.968;5.918;2024-02-28T00:18:13;263.18;;;31.95;;
22768;SDS011;13001;51.968;5.918;2024-02-28T00:20:41;255.15;;;33.73;;
22768;SDS011;13001;51.968;5.918;2024-02-28T00:23:10;218.20;;;33.42;;
22768;SDS011;13001;51.968;5.918;2024-02-28T00:25:37;213.18;;;32.28;;
22768;SDS011;13001;51.968;5.918;2024-02-28T00:28:05;246.57;;;31.90;;
22768;SDS011;13001;51.968;5.918;2024-02-28T00:30:32;171.53;;;30.85;;
22768;SDS011;13001;51.968;5.918;2024-02-28T00:33:01;156.30;;;29.70;;
22768;SDS011;13001;51.968;5.918;2024-02-28T00:35:32;106.17;;;29.55;;
22768;SDS011;13001;51.968;5.918;2024-02-28T00:38:01;123.10;;;31.35;;
22768;SDS011;13001;51.968;5.918;2024-02-28T00:40:28;176.27;;;31.57;;
22768;SDS011;13001;51.968;5.918;2024-02-28T00:42:57;135.50;;;32.25;;
22768;SDS011;13001;51.968;5.918;2024-02-28T00:45:24;145.45;;;32.45;;
22768;SDS011;13001;51.968;5.918;2024-02-28T00:47:52;142.87;;;33.33;;
22768;SDS011;13001;51.968;5.918;2024-02-28T00:50:22;175.25;;;34.18;;
22768;SDS011;13001;51.968;5.918;2024-02-28T00:52:49;164.57;;;32.75;;
22768;SDS011;13001;51.968;5.918;2024-02-28T00:55:17;168.32;;;32.88;;
22768;SDS011;13001;51.968;5.918;2024-02-28T00:57:44;152.38;;;31.93;;
22768;SDS011;13001;51.968;5.918;2024-02-28T01:00:12;123.58;;;34.33;;
22768;SDS011;13001;51.968;5.918;2024-02-28T01:02:39;119.00;;;36.68;;
22768;SDS011;13001;51.968;5.918;2024-02-28T01:05:07;111.60;;;35.75;;
22768;SDS011;13001;51.968;5.918;2024-02-28T01:07:35;112.75;;;37.23;;
22768;SDS011;13001;51.968;5.918;2024-02-28T01:10:03;105.17;;;36.10;;
22768;SDS011;13001;51.968;5.918;2024-02-28T01:12:31;126.33;;;36.43;;
22768;SDS011;13001;51.968;5.918;2024-02-28T01:14:59;148.10;;;35.55;;
22768;SDS011;13001;51.968;5.918;2024-02-28T01:17:26;146.57;;;37.25;;
22768;SDS011;13001;51.968;5.918;2024-02-28T01:19:54;87.37;;;37.35;;
22768;SDS011;13001;51.968;5.918;2024-02-28T01:22:21;145.45;;;37.55;;
22768;SDS011;13001;51.968;5.918;2024-02-28T01:24:51;83.20;;;32.17;;
22768;SDS011;13001;51.968;5.918;2024-02-28T01:27:20;81.27;;;32.50;;
22768;SDS011;13001;51.968;5.918;2024-02-28T01:29:47;80.90;;;34.60;;
22768;SDS011;13001;51.968;5.918;2024-02-28T01:32:15;65.15;;;34.78;;
22768;SDS011;13001;51.968;5.918;2024-02-28T01:34:42;63.08;;;35.45;;
22768;SDS011;13001;51.968;5.918;2024-02-28T01:37:10;67.95;;;38.90;;
22768;SDS011;13001;51.968;5.918;2024-02-28T01:39:37;70.45;;;38.90;;
22768;SDS011;13001;51.968;5.918;2024-02-28T01:42:05;65.62;;;38.40;;
22768;SDS011;13001;51.968;5.918;2024-02-28T01:44:34;66.10;;;38.67;;
22768;SDS011;13001;51.968;5.918;2024-02-28T01:47:04;69.92;;;40.43;;
22768;SDS011;13001;51.968;5.918;2024-02-28T01:49:32;63.20;;;39.05;;
22768;SDS011;13001;51.968;5.918;2024-02-28T01:52:00;75.92;;;41.85;;
22768;SDS011;13001;51.968;5.918;2024-02-28T01:54:28;73.30;;;41.37;;
22768;SDS011;13001;51.968;5.918;2024-02-28T01:56:57;73.70;;;41.45;;
22768;SDS011;13001;51.968;5.918;2024-02-28T01:59:25;93.37;;;41.57;;
22768;SDS011;13001;51.968;5.918;2024-02-28T02:01:54;94.03;;;41.40;;
22768;SDS011;13001;51.968;5.918;2024-02-28T02:04:22;125.20;;;39.90;;
22768;SDS011;13001;51.968;5.918;2024-02-28T02:06:49;131.63;;;38.13;;
22768;SDS011;13001;51.968;5.918;2024-02-28T02:09:19;115.45;;;40.48;;
22768;SDS011;13001;51.968;5.918;2024-02-28T02:11:47;104.97;;;39.33;;
22768;SDS011;13001;51.968;5.918;2024-02-28T02:14:14;118.67;;;40.28;;
22768;SDS011;13001;51.968;5.918;2024-02-28T02:16:42;117.15;;;40.52;;
22768;SDS011;13001;51.968;5.918;2024-02-28T02:19:09;110.85;;;39.25;;
22768;SDS011;13001;51.968;5.918;2024-02-28T02:21:43;120.00;;;39.95;;
22768;SDS011;13001;51.968;5.918;2024-02-28T02:24:10;136.28;;;40.90;;
22768;SDS011;13001;51.968;5.918;2024-02-28T02:26:37;107.20;;;38.95;;
22768;SDS011;13001;51.968;5.918;2024-02-28T02:29:05;109.65;;;38.42;;
22768;SDS011;13001;51.968;5.918;2024-02-28T02:31:34;125.12;;;39.48;;
22768;SDS011;13001;51.968;5.918;2024-02-28T02:34:02;126.73;;;37.90;;
22768;SDS011;13001;51.968;5.918;2024-02-28T02:36:29;99.55;;;37.70;;
22768;SDS011;13001;51.968;5.918;2024-02-28T02:39:00;119.20;;;37.53;;
22768;SDS011;13001;51.968;5.918;2024-02-28T02:41:28;127.47;;;38.30;;
22768;SDS011;13001;51.968;5.918;2024-02-28T02:43:57;126.72;;;36.80;;
22768;SDS011;13001;51.968;5.918;2024-02-28T02:46:24;116.85;;;35.35;;
22768;SDS011;13001;51.968;5.918;2024-02-28T02:48:52;103.60;;;37.23;;
22768;SDS011;13001;51.968;5.918;2024-02-28T02:51:19;97.90;;;38.00;;
22768;SDS011;13001;51.968;5.918;2024-02-28T02:53:47;129.23;;;37.60;;
22768;SDS011;13001;51.968;5.918;2024-02-28T02:56:14;108.80;;;35.88;;
22768;SDS011;13001;51.968;5.918;2024-02-28T02:58:42;81.57;;;36.08;;
22768;SDS011;13001;51.968;5.918;2024-02-28T03:01:09;78.17;;;36.00;;
22768;SDS011;13001;51.968;5.918;2024-02-28T03:03:37;101.45;;;36.05;;
22768;SDS011;13001;51.968;5.918;2024-02-28T03:06:06;91.02;;;36.13;;
22768;SDS011;13001;51.968;5.918;2024-02-28T03:08:35;83.47;;;34.83;;
22768;SDS011;13001;51.968;5.918;2024-02-28T03:11:03;81.17;;;35.90;;
22768;SDS011;13001;51.968;5.918;2024-02-28T03:13:32;80.80;;;34.90;;
22768;SDS011;13001;51.968;5.918;2024-02-28T03:15:59;80.07;;;34.35;;
22768;SDS011;13001;51.968;5.918;2024-02-28T03:18:27;77.08;;;35.33;;
22768;SDS011;13001;51.968;5.918;2024-02-28T03:20:55;87.60;;;35.80;;
22768;SDS011;13001;51.968;5.918;2024-02-28T03:23:22;105.40;;;37.35;;
22768;SDS011;13001;51.968;5.918;2024-02-28T03:25:50;72.55;;;34.78;;
22768;SDS011;13001;51.968;5.918;2024-02-28T03:28:17;67.17;;;34.70;;
22768;SDS011;13001;51.968;5.918;2024-02-28T03:30:45;93.92;;;35.80;;
22768;SDS011;13001;51.968;5.918;2024-02-28T03:33:12;84.87;;;35.90;;
22768;SDS011;13001;51.968;5.918;2024-02-28T03:35:40;91.17;;;36.20;;
22768;SDS011;13001;51.968;5.918;2024-02-28T03:38:07;73.80;;;35.38;;
22768;SDS011;13001;51.968;5.918;2024-02-28T03:40:35;67.62;;;34.80;;
22768;SDS011;13001;51.968;5.918;2024-02-28T03:43:02;56.80;;;33.88;;
22768;SDS011;13001;51.968;5.918;2024-02-28T03:45:31;112.55;;;34.38;;
22768;SDS011;13001;51.968;5.918;2024-02-28T03:48:01;120.50;;;33.60;;
22768;SDS011;13001;51.968;5.918;2024-02-28T03:50:29;87.60;;;34.07;;
22768;SDS011;13001;51.968;5.918;2024-02-28T03:52:56;61.48;;;29.72;;
22768;SDS011;13001;51.968;5.918;2024-02-28T03:55:24;50.10;;;29.12;;
22768;SDS011;13001;51.968;5.918;2024-02-28T03:57:51;52.93;;;28.87;;
22768;SDS011;13001;51.968;5.918;2024-02-28T04:00:19;75.60;;;30.65;;
22768;SDS011;13001;51.968;5.918;2024-02-28T04:02:46;91.12;;;28.00;;
22768;SDS011;13001;51.968;5.918;2024-02-28T04:05:14;85.85;;;29.67;;
22768;SDS011;13001;51.968;5.918;2024-02-28T04:07:43;85.70;;;31.93;;
22768;SDS011;13001;51.968;5.918;2024-02-28T04:10:10;85.65;;;29.72;;
22768;SDS011;13001;51.968;5.918;2024-02-28T04:12:42;72.03;;;28.10;;
22768;SDS011;13001;51.968;5.918;2024-02-28T04:15:13;79.55;;;28.70;;
22768;SDS011;13001;51.968;5.918;2024-02-28T04:17:41;181.60;;;28.05;;
22768;SDS011;13001;51.968;5.918;2024-02-28T04:20:09;241.30;;;29.02;;
22768;SDS011;13001;51.968;5.918;2024-02-28T04:22:39;193.15;;;28.00;;
22768;SDS011;13001;51.968;5.918;2024-02-28T04:25:07;111.03;;;28.23;;
22768;SDS011;13001;51.968;5.918;2024-02-28T04:27:36;266.77;;;30.07;;
22768;SDS011;13001;51.968;5.918;2024-02-28T04:30:04;137.82;;;28.75;;
22768;SDS011;13001;51.968;5.918;2024-02-28T04:32:32;137.65;;;29.45;;
22768;SDS011;13001;51.968;5.918;2024-02-28T04:35:01;149.85;;;28.07;;
22768;SDS011;13001;51.968;5.918;2024-02-28T04:37:29;134.85;;;28.98;;
22768;SDS011;13001;51.968;5.918;2024-02-28T04:39:56;143.13;;;33.20;;
22768;SDS011;13001;51.968;5.918;2024-02-28T04:42:24;60.40;;;33.00;;
22768;SDS011;13001;51.968;5.918;2024-02-28T04:44:51;142.47;;;32.27;;
22768;SDS011;13001;51.968;5.918;2024-02-28T04:47:19;137.88;;;32.20;;
22768;SDS011;13001;51.968;5.918;2024-02-28T04:49:48;78.12;;;33.42;;
22768;SDS011;13001;51.968;5.918;2024-02-28T04:52:15;119.35;;;33.45;;
22768;SDS011;13001;51.968;5.918;2024-02-28T04:54:43;78.35;;;32.98;;
22768;SDS011;13001;51.968;5.918;2024-02-28T04:57:12;75.65;;;31.82;;
22768;SDS011;13001;51.968;5.918;2024-02-28T04:59:40;72.90;;;31.80;;
22768;SDS011;13001;51.968;5.918;2024-02-28T05:02:10;91.57;;;33.98;;
22768;SDS011;13001;51.968;5.918;2024-02-28T05:04:37;131.43;;;27.40;;
22768;SDS011;13001;51.968;5.918;2024-02-28T05:07:05;134.27;;;29.60;;
22768;SDS011;13001;51.968;5.918;2024-02-28T05:09:33;82.82;;;29.00;;
22768;SDS011;13001;51.968;5.918;2024-02-28T05:12:01;92.50;;;28.73;;
22768;SDS011;13001;51.968;5.918;2024-02-28T05:14:29;90.00;;;29.90;;
22768;SDS011;13001;51.968;5.918;2024-02-28T05:16:56;115.85;;;29.02;;
22768;SDS011;13001;51.968;5.918;2024-02-28T05:19:24;72.55;;;28.95;;
22768;SDS011;13001;51.968;5.918;2024-02-28T05:21:51;92.80;;;30.25;;
22768;SDS011;13001;51.968;5.918;2024-02-28T05:24:19;113.55;;;29.55;;
22768;SDS011;13001;51.968;5.918;2024-02-28T05:26:46;75.95;;;29.98;;
22768;SDS011;13001;51.968;5.918;2024-02-28T05:29:14;97.07;;;29.97;;
22768;SDS011;13001;51.968;5.918;2024-02-28T05:31:41;88.17;;;30.43;;
22768;SDS011;13001;51.968;5.918;2024-02-28T05:34:09;65.08;;;33.30;;
22768;SDS011;13001;51.968;5.918;2024-02-28T05:36:36;60.88;;;33.25;;
22768;SDS011;13001;51.968;5.918;2024-02-28T05:39:05;52.73;;;33.13;;
22768;SDS011;13001;51.968;5.918;2024-02-28T05:41:34;58.13;;;33.45;;
22768;SDS011;13001;51.968;5.918;2024-02-28T05:44:01;53.45;;;32.42;;
22768;SDS011;13001;51.968;5.918;2024-02-28T05:46:29;48.92;;;29.75;;
22768;SDS011;13001;51.968;5.918;2024-02-28T05:48:56;58.28;;;29.92;;
22768;SDS011;13001;51.968;5.918;2024-02-28T05:51:24;74.85;;;27.73;;
22768;SDS011;13001;51.968;5.918;2024-02-28T05:53:51;64.58;;;28.05;;
22768;SDS011;13001;51.968;5.918;2024-02-28T05:56:19;68.37;;;27.73;;
22768;SDS011;13001;51.968;5.918;2024-02-28T05:58:48;68.45;;;28.02;;
22768;SDS011;13001;51.968;5.918;2024-02-28T06:01:16;88.50;;;29.05;;
22768;SDS011;13001;51.968;5.918;2024-02-28T06:03:47;82.70;;;27.20;;
22768;SDS011;13001;51.968;5.918;2024-02-28T06:06:16;82.35;;;23.20;;
22768;SDS011;13001;51.968;5.918;2024-02-28T06:08:44;84.50;;;22.27;;
22768;SDS011;13001;51.968;5.918;2024-02-28T06:11:11;71.25;;;22.10;;
22768;SDS011;13001;51.968;5.918;2024-02-28T06:13:42;110.60;;;21.27;;
22768;SDS011;13001;51.968;5.918;2024-02-28T06:16:16;151.57;;;22.20;;
22768;SDS011;13001;51.968;5.918;2024-02-28T06:18:52;120.17;;;21.87;;
22768;SDS011;13001;51.968;5.918;2024-02-28T06:21:21;119.37;;;22.15;;
22768;SDS011;13001;51.968;5.918;2024-02-28T06:23:49;87.75;;;21.02;;
22768;SDS011;13001;51.968;5.918;2024-02-28T06:26:16;93.97;;;23.02;;
22768;SDS011;13001;51.968;5.918;2024-02-28T06:28:44;70.47;;;21.05;;
22768;SDS011;13001;51.968;5.918;2024-02-28T06:31:13;73.23;;;21.53;;
22768;SDS011;13001;51.968;5.918;2024-02-28T06:33:43;57.10;;;22.32;;
22768;SDS011;13001;51.968;5.918;2024-02-28T06:36:11;69.55;;;21.02;;
22768;SDS011;13001;51.968;5.918;2024-02-28T06:38:39;78.37;;;22.33;;
22768;SDS011;13001;51.968;5.918;2024-02-28T06:41:06;80.10;;;23.57;;
22768;SDS011;13001;51.968;5.918;2024-02-28T06:43:34;72.50;;;24.67;;
22768;SDS011;13001;51.968;5.918;2024-02-28T06:46:01;87.95;;;25.02;;
22768;SDS011;13001;51.968;5.918;2024-02-28T06:48:29;59.08;;;25.23;;
22768;SDS011;13001;51.968;5.918;2024-02-28T06:51:02;43.50;;;24.50;;
22768;SDS011;13001;51.968;5.918;2024-02-28T06:53:31;52.23;;;23.05;;
22768;SDS011;13001;51.968;5.918;2024-02-28T06:56:00;38.73;;;27.13;;
22768;SDS011;13001;51.968;5.918;2024-02-28T06:58:29;39.48;;;27.05;;
22768;SDS011;13001;51.968;5.918;2024-02-28T07:00:59;46.60;;;28.12;;
22768;SDS011;13001;51.968;5.918;2024-02-28T07:03:30;39.73;;;27.22;;
22768;SDS011;13001;51.968;5.918;2024-02-28T07:05:57;40.23;;;27.52;;
22768;SDS011;13001;51.968;5.918;2024-02-28T07:08:25;44.48;;;28.98;;
22768;SDS011;13001;51.968;5.918;2024-02-28T07:10:54;37.73;;;27.13;;
22768;SDS011;13001;51.968;5.918;2024-02-28T07:13:21;45.10;;;28.70;;
22768;SDS011;13001;51.968;5.918;2024-02-28T07:15:49;44.20;;;29.12;;
22768;SDS011;13001;51.968;5.918;2024-02-28T07:18:16;41.43;;;30.60;;
22768;SDS011;13001;51.968;5.918;2024-02-28T07:20:44;42.80;;;30.48;;
22768;SDS011;13001;51.968;5.918;2024-02-28T07:23:11;42.62;;;30.30;;
22768;SDS011;13001;51.968;5.918;2024-02-28T07:25:39;37.42;;;28.45;;
22768;SDS011;13001;51.968;5.918;2024-02-28T07:28:06;36.00;;;27.55;;
22768;SDS011;13001;51.968;5.918;2024-02-28T07:30:34;35.10;;;27.07;;
22768;SDS011;13001;51.968;5.918;2024-02-28T07:33:02;32.10;;;23.50;;
22768;SDS011;13001;51.968;5.918;2024-02-28T07:35:31;33.73;;;23.83;;
22768;SDS011;13001;51.968;5.918;2024-02-28T07:37:58;31.57;;;23.40;;
22768;SDS011;13001;51.968;5.918;2024-02-28T07:40:26;34.50;;;24.65;;
22768;SDS011;13001;51.968;5.918;2024-02-28T07:42:53;34.75;;;24.45;;
22768;SDS011;13001;51.968;5.918;2024-02-28T07:45:21;34.63;;;24.07;;
22768;SDS011;13001;51.968;5.918;2024-02-28T07:47:48;33.80;;;24.25;;
22768;SDS011;13001;51.968;5.918;2024-02-28T07:50:16;37.28;;;25.52;;
22768;SDS011;13001;51.968;5.918;2024-02-28T07:52:43;33.55;;;24.12;;
22768;SDS011;13001;51.968;5.918;2024-02-28T07:55:11;30.80;;;23.45;;
22768;SDS011;13001;51.968;5.918;2024-02-28T07:57:38;34.25;;;24.70;;
22768;SDS011;13001;51.968;5.918;2024-02-28T08:00:06;33.38;;;25.02;;
22768;SDS011;13001;51.968;5.918;2024-02-28T08:02:34;37.08;;;24.60;;
22768;SDS011;13001;51.968;5.918;2024-02-28T08:05:02;34.13;;;24.47;;
22768;SDS011;13001;51.968;5.918;2024-02-28T08:07:30;36.42;;;25.17;;
22768;SDS011;13001;51.968;5.918;2024-02-28T08:09:57;35.83;;;24.60;;
22768;SDS011;13001;51.968;5.918;2024-02-28T08:12:25;36.50;;;25.77;;
22768;SDS011;13001;51.968;5.918;2024-02-28T08:14:52;38.53;;;25.77;;
22768;SDS011;13001;51.968;5.918;2024-02-28T08:17:29;34.75;;;25.55;;
22768;SDS011;13001;51.968;5.918;2024-02-28T08:19:57;37.83;;;27.45;;
22768;SDS011;13001;51.968;5.918;2024-02-28T08:22:24;44.95;;;28.62;;
22768;SDS011;13001;51.968;5.918;2024-02-28T08:24:52;47.13;;;29.57;;
22768;SDS011;13001;51.968;5.918;2024-02-28T08:27:19;53.35;;;30.37;;
22768;SDS011;13001;51.968;5.918;2024-02-28T08:29:54;46.58;;;29.15;;
22768;SDS011;13001;51.968;5.918;2024-02-28T08:32:17;43.48;;;29.12;;
22768;SDS011;13001;51.968;5.918;2024-02-28T08:34:47;45.95;;;29.25;;
22768;SDS011;13001;51.968;5.918;2024-02-28T08:37:15;48.85;;;29.67;;
22768;SDS011;13001;51.968;5.918;2024-02-28T08:39:43;47.97;;;28.63;;
22768;SDS011;13001;51.968;5.918;2024-02-28T08:42:10;46.98;;;28.35;;
22768;SDS011;13001;51.968;5.918;2024-02-28T08:44:38;45.65;;;29.72;;
22768;SDS011;13001;51.968;5.918;2024-02-28T08:47:05;48.08;;;29.98;;
22768;SDS011;13001;51.968;5.918;2024-02-28T08:49:38;48.03;;;28.43;;
22768;SDS011;13001;51.968;5.918;2024-02-28T08:52:05;48.73;;;29.70;;
22768;SDS011;13001;51.968;5.918;2024-02-28T08:54:33;48.48;;;30.15;;
22768;SDS011;13001;51.968;5.918;2024-02-28T08:57:06;49.50;;;30.10;;
22768;SDS011;13001;51.968;5.918;2024-02-28T08:59:34;47.45;;;30.48;;
22768;SDS011;13001;51.968;5.918;2024-02-28T09:02:01;45.37;;;29.20;;
22768;SDS011;13001;51.968;5.918;2024-02-28T09:04:29;47.35;;;29.05;;
22768;SDS011;13001;51.968;5.918;2024-02-28T09:06:57;41.13;;;28.00;;
22768;SDS011;13001;51.968;5.918;2024-02-28T09:09:24;44.55;;;28.15;;
22768;SDS011;13001;51.968;5.918;2024-02-28T09:11:54;46.05;;;28.62;;
22768;SDS011;13001;51.968;5.918;2024-02-28T09:14:22;44.67;;;28.80;;
22768;SDS011;13001;51.968;5.918;2024-02-28T09:16:49;47.13;;;28.17;;
22768;SDS011;13001;51.968;5.918;2024-02-28T09:19:17;44.77;;;29.15;;
22768;SDS011;13001;51.968;5.918;2024-02-28T09:21:44;44.18;;;29.37;;
22768;SDS011;13001;51.968;5.918;2024-02-28T09:24:13;48.52;;;30.45;;
22768;SDS011;13001;51.968;5.918;2024-02-28T09:26:41;47.17;;;28.63;;
22768;SDS011;13001;51.968;5.918;2024-02-28T09:29:09;47.08;;;30.65;;
22768;SDS011;13001;51.968;5.918;2024-02-28T09:31:36;44.65;;;31.02;;
22768;SDS011;13001;51.968;5.918;2024-02-28T09:34:04;46.53;;;31.15;;
22768;SDS011;13001;51.968;5.918;2024-02-28T09:36:42;48.17;;;31.40;;
22768;SDS011;13001;51.968;5.918;2024-02-28T09:39:16;45.33;;;29.82;;
22768;SDS011;13001;51.968;5.918;2024-02-28T09:41:41;42.03;;;29.15;;
22768;SDS011;13001;51.968;5.918;2024-02-28T09:44:09;46.83;;;30.37;;
22768;SDS011;13001;51.968;5.918;2024-02-28T09:46:38;45.13;;;29.73;;
22768;SDS011;13001;51.968;5.918;2024-02-28T09:49:11;46.18;;;31.23;;
22768;SDS011;13001;51.968;5.918;2024-02-28T09:51:42;47.57;;;31.80;;
22768;SDS011;13001;51.968;5.918;2024-02-28T09:54:10;49.55;;;31.37;;
22768;SDS011;13001;51.968;5.918;2024-02-28T09:56:38;46.63;;;30.50;;
22768;SDS011;13001;51.968;5.918;2024-02-28T09:59:06;49.42;;;32.00;;
22768;SDS011;13001;51.968;5.918;2024-02-28T10:01:35;48.30;;;31.85;;
22768;SDS011;13001;51.968;5.918;2024-02-28T10:04:04;47.85;;;31.52;;
22768;SDS011;13001;51.968;5.918;2024-02-28T10:06:34;45.12;;;30.72;;
22768;SDS011;13001;51.968;5.918;2024-02-28T10:09:02;45.05;;;31.02;;
22768;SDS011;13001;51.968;5.918;2024-02-28T10:11:31;44.30;;;30.00;;
22768;SDS011;13001;51.968;5.918;2024-02-28T10:13:59;43.35;;;29.32;;
22768;SDS011;13001;51.968;5.918;2024-02-28T10:16:27;45.10;;;30.57;;
22768;SDS011;13001;51.968;5.918;2024-02-28T10:18:55;46.13;;;32.40;;
22768;SDS011;13001;51.968;5.918;2024-02-28T10:21:23;47.08;;;30.52;;
22768;SDS011;13001;51.968;5.918;2024-02-28T10:23:52;50.00;;;32.98;;
22768;SDS011;13001;51.968;5.918;2024-02-28T10:26:19;47.20;;;32.73;;
22768;SDS011;13001;51.968;5.918;2024-02-28T10:28:47;44.95;;;30.85;;
22768;SDS011;13001;51.968;5.918;2024-02-28T10:31:14;43.83;;;30.17;;
22768;SDS011;13001;51.968;5.918;2024-02-28T10:33:42;45.90;;;30.97;;
22768;SDS011;13001;51.968;5.918;2024-02-28T10:36:09;41.13;;;30.15;;
22768;SDS011;13001;51.968;5.918;2024-02-28T10:38:37;46.10;;;30.92;;
22768;SDS011;13001;51.968;5.918;2024-02-28T10:41:05;40.43;;;29.00;;
22768;SDS011;13001;51.968;5.918;2024-02-28T10:43:33;43.63;;;29.98;;
22768;SDS011;13001;51.968;5.918;2024-02-28T10:46:00;43.52;;;28.57;;
22768;SDS011;13001;51.968;5.918;2024-02-28T10:48:28;43.35;;;28.57;;
22768;SDS011;13001;51.968;5.918;2024-02-28T10:50:56;40.20;;;29.15;;
22768;SDS011;13001;51.968;5.918;2024-02-28T10:53:36;41.50;;;28.02;;
22768;SDS011;13001;51.968;5.918;2024-02-28T10:56:05;46.05;;;29.72;;
22768;SDS011;13001;51.968;5.918;2024-02-28T10:58:36;39.33;;;28.65;;
22768;SDS011;13001;51.968;5.918;2024-02-28T11:01:12;38.98;;;28.02;;
22768;SDS011;13001;51.968;5.918;2024-02-28T11:03:40;37.67;;;27.50;;
22768;SDS011;13001;51.968;5.918;2024-02-28T11:06:17;43.10;;;29.05;;
22768;SDS011;13001;51.968;5.918;2024-02-28T11:08:47;46.35;;;30.17;;
22768;SDS011;13001;51.968;5.918;2024-02-28T11:11:17;39.70;;;28.85;;
22768;SDS011;13001;51.968;5.918;2024-02-28T11:13:52;42.58;;;30.70;;
22768;SDS011;13001;51.968;5.918;2024-02-28T11:16:32;37.00;;;27.17;;
22768;SDS011;13001;51.968;5.918;2024-02-28T11:18:56;39.53;;;29.10;;
22768;SDS011;13001;51.968;5.918;2024-02-28T11:21:33;42.55;;;28.90;;
22768;SDS011;13001;51.968;5.918;2024-02-28T11:23:57;46.77;;;29.98;;
22768;SDS011;13001;51.968;5.918;2024-02-28T11:26:26;44.20;;;30.62;;
22768;SDS011;13001;51.968;5.918;2024-02-28T11:28:57;40.98;;;30.57;;
22768;SDS011;13001;51.968;5.918;2024-02-28T11:31:24;42.83;;;29.82;;
22768;SDS011;13001;51.968;5.918;2024-02-28T11:33:53;42.35;;;29.75;;
22768;SDS011;13001;51.968;5.918;2024-02-28T11:36:21;41.75;;;28.20;;
22768;SDS011;13001;51.968;5.918;2024-02-28T11:38:49;37.48;;;28.50;;
22768;SDS011;13001;51.968;5.918;2024-02-28T11:41:25;36.15;;;27.20;;
22768;SDS011;13001;51.968;5.918;2024-02-28T11:43:56;40.48;;;28.27;;
22768;SDS011;13001;51.968;5.918;2024-02-28T11:46:23;41.90;;;27.98;;
22768;SDS011;13001;51.968;5.918;2024-02-28T11:48:51;40.57;;;27.53;;
22768;SDS011;13001;51.968;5.918;2024-02-28T11:51:21;41.37;;;28.25;;
22768;SDS011;13001;51.968;5.918;2024-02-28T11:53:49;44.90;;;28.85;;
22768;SDS011;13001;51.968;5.918;2024-02-28T11:56:16;42.45;;;28.52;;
22768;SDS011;13001;51.968;5.918;2024-02-28T11:58:58;42.85;;;29.77;;
22768;SDS011;13001;51.968;5.918;2024-02-28T12:01:36;44.42;;;28.87;;
22768;SDS011;13001;51.968;5.918;2024-02-28T12:04:05;44.60;;;30.70;;
22768;SDS011;13001;51.968;5.918;2024-02-28T12:06:34;42.85;;;30.20;;
22768;SDS011;13001;51.968;5.918;2024-02-28T12:09:07;47.05;;;31.33;;
22768;SDS011;13001;51.968;5.918;2024-02-28T12:11:36;50.12;;;32.45;;
22768;SDS011;13001;51.968;5.918;2024-02-28T12:14:08;48.80;;;32.28;;
22768;SDS011;13001;51.968;5.918;2024-02-28T12:16:36;45.70;;;32.27;;
22768;SDS011;13001;51.968;5.918;2024-02-28T12:19:09;43.37;;;31.13;;
22768;SDS011;13001;51.968;5.918;2024-02-28T12:21:41;46.18;;;31.23;;
22768;SDS011;13001;51.968;5.918;2024-02-28T12:24:09;44.58;;;30.95;;
22768;SDS011;13001;51.968;5.918;2024-02-28T12:26:37;44.67;;;31.17;;
22768;SDS011;13001;51.968;5.918;2024-02-28T12:29:05;43.55;;;30.97;;
22768;SDS011;13001;51.968;5.918;2024-02-28T12:31:33;45.23;;;30.82;;
22768;SDS011;13001;51.968;5.918;2024-02-28T12:34:01;47.25;;;29.50;;
22768;SDS011;13001;51.968;5.918;2024-02-28T12:36:30;42.17;;;28.73;;
22768;SDS011;13001;51.968;5.918;2024-02-28T12:38:58;47.10;;;30.30;;
22768;SDS011;13001;51.968;5.918;2024-02-28T12:41:26;43.00;;;29.00;;
22768;SDS011;13001;51.968;5.918;2024-02-28T12:43:54;44.73;;;27.82;;
22768;SDS011;13001;51.968;5.918;2024-02-28T12:46:21;37.23;;;27.40;;
22768;SDS011;13001;51.968;5.918;2024-02-28T12:48:49;41.95;;;27.58;;
22768;SDS011;13001;51.968;5.918;2024-02-28T12:51:35;38.70;;;27.23;;
22768;SDS011;13001;51.968;5.918;2024-02-28T12:54:11;34.75;;;25.43;;
22768;SDS011;13001;51.968;5.918;2024-02-28T12:56:42;34.38;;;25.92;;
22768;SDS011;13001;51.968;5.918;2024-02-28T12:59:10;36.20;;;25.08;;
22768;SDS011;13001;51.968;5.918;2024-02-28T13:01:38;39.50;;;24.90;;
22768;SDS011;13001;51.968;5.918;2024-02-28T13:04:06;34.67;;;24.32;;
22768;SDS011;13001;51.968;5.918;2024-02-28T13:06:34;35.78;;;25.17;;
22768;SDS011;13001;51.968;5.918;2024-02-28T13:09:01;36.75;;;24.87;;
22768;SDS011;13001;51.968;5.918;2024-02-28T13:11:29;34.98;;;24.52;;
22768;SDS011;13001;51.968;5.918;2024-02-28T13:13:56;37.83;;;24.18;;
22768;SDS011;13001;51.968;5.918;2024-02-28T13:16:24;35.88;;;24.25;;
22768;SDS011;13001;51.968;5.918;2024-02-28T13:18:51;40.95;;;24.75;;
22768;SDS011;13001;51.968;5.918;2024-02-28T13:21:19;33.85;;;25.10;;
22768;SDS011;13001;51.968;5.918;2024-02-28T13:23:46;38.65;;;24.85;;
22768;SDS011;13001;51.968;5.918;2024-02-28T13:26:14;38.10;;;25.95;;
22768;SDS011;13001;51.968;5.918;2024-02-28T13:28:46;37.67;;;25.80;;
22768;SDS011;13001;51.968;5.918;2024-02-28T13:31:14;35.17;;;24.43;;
22768;SDS011;13001;51.968;5.918;2024-02-28T13:33:43;37.67;;;25.85;;
22768;SDS011;13001;51.968;5.918;2024-02-28T13:36:10;36.30;;;24.65;;
22768;SDS011;13001;51.968;5.918;2024-02-28T13:38:38;39.03;;;26.50;;
22768;SDS011;13001;51.968;5.918;2024-02-28T13:41:05;39.50;;;25.77;;
22768;SDS011;13001;51.968;5.918;2024-02-28T13:43:33;38.00;;;25.35;;
22768;SDS011;13001;51.968;5.918;2024-02-28T13:46:01;33.95;;;22.93;;
22768;SDS011;13001;51.968;5.918;2024-02-28T13:48:30;28.17;;;21.73;;
22768;SDS011;13001;51.968;5.918;2024-02-28T13:50:59;32.48;;;22.35;;
22768;SDS011;13001;51.968;5.918;2024-02-28T13:53:28;29.23;;;22.22;;
22768;SDS011;13001;51.968;5.918;2024-02-28T13:56:00;32.93;;;22.03;;
22768;SDS011;13001;51.968;5.918;2024-02-28T13:58:27;32.45;;;22.07;;
22768;SDS011;13001;51.968;5.918;2024-02-28T14:00:55;32.47;;;22.10;;
22768;SDS011;13001;51.968;5.918;2024-02-28T14:03:22;32.75;;;20.88;;
22768;SDS011;13001;51.968;5.918;2024-02-28T14:05:51;31.53;;;21.13;;
22768;SDS011;13001;51.968;5.918;2024-02-28T14:08:19;34.80;;;21.57;;
22768;SDS011;13001;51.968;5.918;2024-02-28T14:10:47;33.40;;;22.50;;
22768;SDS011;13001;51.968;5.918;2024-02-28T14:13:14;38.10;;;23.07;;
22768;SDS011;13001;51.968;5.918;2024-02-28T14:15:44;38.50;;;24.50;;
22768;SDS011;13001;51.968;5.918;2024-02-28T14:18:12;36.75;;;24.12;;
22768;SDS011;13001;51.968;5.918;2024-02-28T14:20:40;36.10;;;24.45;;
22768;SDS011;13001;51.968;5.918;2024-02-28T14:23:08;42.53;;;25.50;;
22768;SDS011;13001;51.968;5.918;2024-02-28T14:25:35;39.05;;;26.12;;